Terminal Aerodrome Forecast
Issued by NWS

Home | Current Version | Previous Version | Text Only | Print | Product List | Glossary On
Versions: 1 2 3 4 5 6 7 8 9 10 11 12 13 14 15 16 17
000
FTUS43 KDVN 260708 AAB
TAFBRL
TAF AMD
KBRL 260708Z 2607/2706 17010KT P6SM VCSH OVC080
      TEMPO 2607/2611 4SM -SHRA BR OVC040
     FM261400 27009KT 5SM -SHRA BR OVC025
     FM261700 29013KT P6SM BKN015
     FM262000 29013KT 4SM -SHRA BR BKN015=

USA.gov is the U.S. government's official web portal to all federal, state and local government web resources and services.